createdAt,value
2018-06-28T00:01:04.208Z,100322.83
2018-06-28T00:02:39.804Z,100318.97
2018-06-28T00:04:15.363Z,100322.71
2018-06-28T00:05:51.074Z,100324.51
2018-06-28T00:07:26.613Z,100320.19
2018-06-28T00:09:02.208Z,100324.77
2018-06-28T00:10:37.803Z,100321.43
2018-06-28T00:12:13.422Z,100325.63
2018-06-28T00:13:48.995Z,100317.06
2018-06-28T00:15:24.605Z,100326.23
2018-06-28T00:17:00.182Z,100317.06
2018-06-28T00:18:35.771Z,100314.57
2018-06-28T00:20:11.396Z,100318.30
2018-06-28T00:21:47.027Z,100313.83
2018-06-28T00:23:22.583Z,100309.34
2018-06-28T00:24:58.132Z,100312.58
2018-06-28T00:26:33.733Z,100311.16
2018-06-28T00:28:09.290Z,100310.69
2018-06-28T00:29:44.871Z,100310.69
2018-06-28T00:31:20.490Z,100309.36
2018-06-28T00:32:56.057Z,100305.88
2018-06-28T00:34:31.626Z,100305.25
2018-06-28T00:36:07.222Z,100307.65
2018-06-28T00:37:42.822Z,100305.45
2018-06-28T00:39:18.385Z,100306.17
2018-06-28T00:40:53.966Z,100302.48
2018-06-28T00:42:29.586Z,100306.05
2018-06-28T00:44:05.226Z,100302.09
2018-06-28T00:45:40.923Z,100300.97
2018-06-28T00:47:16.529Z,100303.58
2018-06-28T00:48:52.117Z,100306.83
2018-06-28T00:50:27.774Z,100301.66
2018-06-28T00:52:03.385Z,100294.13
2018-06-28T00:53:39.075Z,100297.12
2018-06-28T00:55:14.663Z,100288.84
2018-06-28T00:56:50.290Z,100293.78
2018-06-28T00:58:25.874Z,100288.62
2018-06-28T01:00:01.433Z,100283.08
2018-06-28T01:01:37.017Z,100273.67
2018-06-28T01:03:12.645Z,100284.08
2018-06-28T01:04:48.215Z,100278.80
2018-06-28T01:06:23.840Z,100276.34
2018-06-28T01:07:59.393Z,100273.73
2018-06-28T01:09:35.016Z,100268.13
2018-06-28T01:11:10.655Z,100272.39
2018-06-28T01:12:46.226Z,100267.40
2018-06-28T01:14:21.894Z,100270.08
2018-06-28T01:15:57.465Z,100267.60
2018-06-28T01:17:33.100Z,100266.19
2018-06-28T01:19:09.252Z,100264.39
2018-06-28T01:20:44.860Z,100265.62
2018-06-28T01:22:20.628Z,100257.56
2018-06-28T01:23:56.213Z,100256.25
2018-06-28T01:25:31.860Z,100261.53
2018-06-28T01:27:07.439Z,100259.23
2018-06-28T01:28:43.043Z,100255.88
2018-06-28T01:30:18.624Z,100258.01
2018-06-28T01:31:54.266Z,100260.91
2018-06-28T01:33:29.865Z,100258.27
2018-06-28T01:35:05.527Z,100257.76
2018-06-28T01:36:41.106Z,100257.76
2018-06-28T01:38:16.766Z,100259.20
2018-06-28T01:39:52.367Z,100255.71
2018-06-28T01:41:37.999Z,100255.24
2018-06-28T01:43:35.861Z,100254.61
2018-06-28T01:45:11.430Z,100256.96
2018-06-28T01:46:47.109Z,100252.75
2018-06-28T01:48:22.703Z,100263.65
2018-06-28T01:49:58.308Z,100257.05
2018-06-28T01:51:33.893Z,100256.67
2018-06-28T01:53:09.519Z,100260.84
2018-06-28T01:54:45.124Z,100259.69
2018-06-28T01:56:20.688Z,100256.67
2018-06-28T01:57:56.246Z,100261.95
2018-06-28T01:59:31.855Z,100266.89
2018-06-28T02:01:07.624Z,100269.66
2018-06-28T02:02:43.312Z,100269.44
2018-06-28T02:04:19.111Z,100266.80
2018-06-28T02:05:55.218Z,100269.53
2018-06-28T02:07:30.839Z,100264.08
2018-06-28T02:09:08.489Z,100270.09
2018-06-28T02:10:44.077Z,100271.92
2018-06-28T02:12:19.692Z,100267.78
2018-06-28T02:13:55.284Z,100272.81
2018-06-28T02:15:30.875Z,100273.19
2018-06-28T02:17:06.488Z,100273.66
2018-06-28T02:18:42.124Z,100270.04
2018-06-28T02:20:17.696Z,100263.91
2018-06-28T02:21:53.352Z,100263.66
2018-06-28T02:23:28.925Z,100261.36
2018-06-28T02:25:04.647Z,100259.73
2018-06-28T02:26:40.244Z,100261.56
2018-06-28T02:28:15.822Z,100259.86
2018-06-28T02:29:51.453Z,100261.14
2018-06-28T02:31:27.017Z,100257.52
2018-06-28T02:33:02.591Z,100258.80
2018-06-28T02:34:38.164Z,100250.75
2018-06-28T02:36:13.789Z,100252.20
2018-06-28T02:37:49.356Z,100254.84
2018-06-28T02:39:24.955Z,100252.32
2018-06-28T02:41:00.549Z,100251.94
2018-06-28T02:42:36.112Z,100243.68
2018-06-28T02:44:11.725Z,100249.34
2018-06-28T02:45:47.338Z,100243.98
2018-06-28T02:47:22.966Z,100243.81
2018-06-28T02:48:58.583Z,100241.55
2018-06-28T02:50:34.145Z,100242.44
2018-06-28T02:52:09.721Z,100247.55
2018-06-28T02:53:45.376Z,100249.12
2018-06-28T02:55:20.980Z,100246.58
2018-06-28T02:56:56.564Z,100252.08
2018-06-28T02:58:32.188Z,100255.95
2018-06-28T03:00:08.038Z,100249.18
2018-06-28T03:01:43.734Z,100250.19
2018-06-28T03:03:19.358Z,100252.92
2018-06-28T03:04:55.156Z,100253.34
2018-06-28T03:06:30.727Z,100251.86
2018-06-28T03:08:06.689Z,100256.72
2018-06-28T03:09:42.280Z,100247.05
2018-06-28T03:11:17.947Z,100240.23
2018-06-28T03:12:53.957Z,100243.34
2018-06-28T03:14:29.562Z,100247.39
2018-06-28T03:16:05.167Z,100247.30
2018-06-28T03:17:40.764Z,100256.96
2018-06-28T03:19:16.380Z,100255.01
2018-06-28T03:20:52.029Z,100252.62
2018-06-28T03:22:27.727Z,100253.56
2018-06-28T03:24:03.351Z,100252.62
2018-06-28T03:25:38.940Z,100252.91
2018-06-28T03:27:14.594Z,100259.02
2018-06-28T03:28:53.394Z,100253.86
2018-06-28T03:30:29.044Z,100263.19
2018-06-28T03:32:04.662Z,100260.46
2018-06-28T03:33:40.222Z,100267.66
2018-06-28T03:35:15.840Z,100265.66
2018-06-28T03:36:51.543Z,100259.91
2018-06-28T03:38:27.111Z,100256.03
2018-06-28T03:40:02.753Z,100254.03
2018-06-28T03:41:38.480Z,100250.32
2018-06-28T03:43:14.044Z,100259.40
2018-06-28T03:44:49.635Z,100259.91
2018-06-28T03:46:25.258Z,100259.02
2018-06-28T03:48:00.851Z,100255.22
2018-06-28T03:49:36.504Z,100259.48
2018-06-28T03:51:12.201Z,100253.69
2018-06-28T03:52:47.769Z,100258.79
2018-06-28T03:54:23.340Z,100265.43
2018-06-28T03:55:58.904Z,100262.66
2018-06-28T03:57:46.585Z,100259.55
2018-06-28T03:59:22.150Z,100257.41
2018-06-28T04:00:57.829Z,100256.66
2018-06-28T04:02:33.448Z,100257.76
2018-06-28T04:04:09.016Z,100256.56
2018-06-28T04:05:44.602Z,100263.77
2018-06-28T04:07:20.179Z,100267.03
2018-06-28T04:08:55.801Z,100267.22
2018-06-28T04:10:31.380Z,100266.50
2018-06-28T04:12:06.955Z,100262.27
2018-06-28T04:13:42.599Z,100249.16
2018-06-28T04:15:18.188Z,100246.73
2018-06-28T04:16:53.781Z,100244.23
2018-06-28T04:18:29.348Z,100237.88
2018-06-28T04:20:04.951Z,100231.19
2018-06-28T04:21:40.577Z,100229.97
2018-06-28T04:23:16.143Z,100239.00
2018-06-28T04:24:51.850Z,100230.68
2018-06-28T04:26:27.475Z,100225.24
2018-06-28T04:28:03.068Z,100231.90
2018-06-28T04:29:38.685Z,100231.61
2018-06-28T04:31:14.259Z,100235.83
2018-06-28T04:32:49.877Z,100229.55
2018-06-28T04:34:25.478Z,100230.72
2018-06-28T04:36:01.399Z,100227.11
2018-06-28T04:37:37.017Z,100220.55
2018-06-28T04:39:13.548Z,100220.41
2018-06-28T04:40:49.164Z,100223.05
2018-06-28T04:42:24.752Z,100217.38
2018-06-28T04:44:00.322Z,100229.58
2018-06-28T04:45:35.923Z,100222.12
2018-06-28T04:47:11.566Z,100224.52
2018-06-28T04:48:47.143Z,100229.53
2018-06-28T04:50:22.728Z,100229.78
2018-06-28T04:51:58.384Z,100225.22
2018-06-28T04:53:33.989Z,100225.55
2018-06-28T04:55:09.570Z,100222.20
2018-06-28T04:56:45.183Z,100221.77
2018-06-28T04:58:20.766Z,100221.95
2018-06-28T04:59:56.349Z,100216.34
2018-06-28T05:01:31.983Z,100216.56
2018-06-28T05:03:07.622Z,100224.79
2018-06-28T05:04:43.192Z,100213.83
2018-06-28T05:06:18.773Z,100221.36
2018-06-28T05:07:55.911Z,100216.41
2018-06-28T05:09:32.262Z,100213.97
2018-06-28T05:11:08.135Z,100217.59
2018-06-28T05:12:43.910Z,100217.34
2018-06-28T05:14:31.852Z,100216.83
2018-06-28T05:16:10.723Z,100219.59
2018-06-28T05:17:47.303Z,100211.30
2018-06-28T05:19:22.872Z,100212.42
2018-06-28T05:20:59.460Z,100216.31
2018-06-28T05:22:35.281Z,100213.56
2018-06-28T05:24:10.920Z,100218.66
2018-06-28T05:25:53.293Z,100206.83
2018-06-28T05:27:29.925Z,100207.55
2018-06-28T05:29:05.743Z,100202.63
2018-06-28T05:30:43.305Z,100205.34
2018-06-28T05:32:20.524Z,100205.54
2018-06-28T05:33:56.120Z,100205.94
2018-06-28T05:35:32.075Z,100211.20
2018-06-28T05:37:08.970Z,100201.62
2018-06-28T05:38:44.606Z,100197.22
2018-06-28T05:40:20.436Z,100196.63
2018-06-28T05:41:57.062Z,100194.27
2018-06-28T05:43:32.742Z,100193.00
2018-06-28T05:45:08.631Z,100195.59
2018-06-28T05:46:44.365Z,100197.85
2018-06-28T05:48:20.096Z,100195.61
2018-06-28T05:49:56.045Z,100197.95
2018-06-28T05:51:32.172Z,100197.44
2018-06-28T05:53:07.908Z,100197.84
2018-06-28T05:54:43.492Z,100203.78
2018-06-28T05:56:19.105Z,100199.87
2018-06-28T05:57:54.727Z,100200.38
2018-06-28T05:59:30.318Z,100195.95
2018-06-28T06:01:06.025Z,100194.84
2018-06-28T06:02:41.685Z,100200.09
2018-06-28T06:04:17.284Z,100198.17
2018-06-28T06:05:55.067Z,100193.06
2018-06-28T06:07:30.737Z,100198.52
2018-06-28T06:09:08.494Z,100195.21
2018-06-28T06:10:45.962Z,100198.00
2018-06-28T06:12:23.617Z,100197.88
2018-06-28T06:13:59.258Z,100197.19
2018-06-28T06:15:36.588Z,100205.04
2018-06-28T06:17:12.190Z,100195.29
2018-06-28T06:18:48.525Z,100200.94
2018-06-28T06:20:24.142Z,100194.45
2018-06-28T06:21:59.774Z,100193.64
2018-06-28T06:23:35.497Z,100185.58
2018-06-28T06:25:11.612Z,100188.97
2018-06-28T06:26:48.480Z,100186.02
2018-06-28T06:28:25.056Z,100187.67
2018-06-28T06:30:02.705Z,100185.03
2018-06-28T06:31:39.869Z,100189.66
2018-06-28T06:33:15.515Z,100183.70
2018-06-28T06:34:51.635Z,100175.77
2018-06-28T06:36:27.594Z,100185.49
2018-06-28T06:38:03.215Z,100186.25
2018-06-28T06:39:38.816Z,100178.98
2018-06-28T06:41:14.646Z,100177.31
2018-06-28T06:42:50.700Z,100177.21
2018-06-28T06:44:26.287Z,100175.75
2018-06-28T06:46:01.927Z,100179.42
2018-06-28T06:47:37.564Z,100173.02
2018-06-28T06:49:13.163Z,100180.08
2018-06-28T06:50:48.782Z,100170.55
2018-06-28T06:52:24.398Z,100176.17
2018-06-28T06:53:59.977Z,100167.80
2018-06-28T06:55:35.543Z,100174.16
2018-06-28T06:57:11.101Z,100169.22
2018-06-28T06:58:46.696Z,100168.24
2018-06-28T07:00:22.344Z,100171.19
2018-06-28T07:01:57.940Z,100170.05
2018-06-28T07:03:33.569Z,100164.17
2018-06-28T07:05:09.105Z,100161.67
2018-06-28T07:06:44.715Z,100154.08
2018-06-28T07:08:20.293Z,100157.30
2018-06-28T07:09:55.903Z,100155.28
2018-06-28T07:11:31.522Z,100157.48
2018-06-28T07:13:07.157Z,100147.33
2018-06-28T07:14:42.756Z,100141.80
2018-06-28T07:16:18.372Z,100151.48
2018-06-28T07:17:53.956Z,100140.17
2018-06-28T07:19:29.569Z,100143.11
2018-06-28T07:21:05.168Z,100132.92
2018-06-28T07:22:40.757Z,100123.01
2018-06-28T07:24:16.358Z,100126.61
2018-06-28T07:25:51.978Z,100120.91
2018-06-28T07:27:27.560Z,100124.34
2018-06-28T07:29:03.126Z,100116.23
2018-06-28T07:30:38.719Z,100110.12
2018-06-28T07:32:14.345Z,100113.84
2018-06-28T07:33:49.921Z,100109.06
2018-06-28T07:35:25.707Z,100121.13
2018-06-28T07:37:01.291Z,100110.52
2018-06-28T07:38:36.868Z,100112.16
2018-06-28T07:40:12.674Z,100101.80
2018-06-28T07:41:48.275Z,100092.69
2018-06-28T07:43:23.849Z,100103.10
2018-06-28T07:44:59.444Z,100102.25
2018-06-28T07:46:41.376Z,100100.92
2018-06-28T07:48:16.963Z,100095.94
2018-06-28T07:49:52.578Z,100102.80
2018-06-28T07:51:28.208Z,100118.77
2018-06-28T07:53:05.207Z,100106.94
2018-06-28T07:54:40.781Z,100105.64
2018-06-28T07:56:16.363Z,100106.71
2018-06-28T07:57:51.975Z,100106.22
2018-06-28T07:59:27.722Z,100102.63
2018-06-28T08:01:03.817Z,100094.72
2018-06-28T08:02:41.564Z,99992.54
2018-06-28T08:04:17.154Z,100098.80
2018-06-28T08:05:53.395Z,100091.28
2018-06-28T08:07:28.968Z,100092.32
2018-06-28T08:09:06.394Z,100099.32
2018-06-28T08:10:41.991Z,100097.95
2018-06-28T08:12:17.852Z,100093.98
2018-06-28T08:13:53.464Z,100089.14
2018-06-28T08:15:29.064Z,100090.84
2018-06-28T08:17:05.864Z,100101.00
2018-06-28T08:18:41.833Z,100093.83
2018-06-28T08:20:17.446Z,100096.82
2018-06-28T08:21:53.959Z,100072.62
2018-06-28T08:23:29.988Z,100080.34
2018-06-28T08:25:06.821Z,100077.98
2018-06-28T08:26:42.547Z,100079.81
2018-06-28T08:28:18.126Z,100081.17
2018-06-28T08:29:53.703Z,100075.16
2018-06-28T08:31:29.333Z,100069.82
2018-06-28T08:33:04.960Z,100074.82
2018-06-28T08:34:40.571Z,100068.68
2018-06-28T08:36:16.312Z,100070.83
2018-06-28T08:37:51.959Z,100067.49
2018-06-28T08:39:28.108Z,100067.47
2018-06-28T08:41:04.114Z,100060.61
2018-06-28T08:42:39.885Z,100060.27
2018-06-28T08:44:15.482Z,100088.53
2018-06-28T08:45:53.410Z,100058.11
2018-06-28T08:47:29.077Z,100061.39
2018-06-28T08:49:04.955Z,100056.35
2018-06-28T08:50:40.471Z,100061.70
2018-06-28T08:52:18.296Z,100062.71
2018-06-28T08:53:53.952Z,100059.42
2018-06-28T08:55:29.807Z,100046.39
2018-06-28T08:57:05.401Z,100067.95
2018-06-28T08:58:40.996Z,100058.06
2018-06-28T09:00:16.610Z,100034.98
2018-06-28T09:01:52.394Z,100051.02
2018-06-28T09:03:28.238Z,100046.63
2018-06-28T09:05:03.858Z,100050.25
2018-06-28T09:06:39.568Z,100028.44
2018-06-28T09:08:15.206Z,100029.74
2018-06-28T09:09:50.810Z,100024.11
2018-06-28T09:11:26.376Z,100041.77
2018-06-28T09:13:02.056Z,100039.09
2018-06-28T09:14:37.668Z,100053.83
2018-06-28T09:16:14.884Z,100046.44
2018-06-28T09:17:51.682Z,100019.48
2018-06-28T09:19:27.392Z,100018.16
2018-06-28T09:21:03.113Z,100023.70
2018-06-28T09:22:39.294Z,100018.38
2018-06-28T09:24:14.832Z,100009.07
2018-06-28T09:25:50.480Z,100011.58
2018-06-28T09:27:26.081Z,100023.47
2018-06-28T09:29:01.681Z,100010.86
2018-06-28T09:30:37.415Z,100012.19
2018-06-28T09:32:13.104Z,99997.44
2018-06-28T09:33:48.847Z,100000.58
2018-06-28T09:35:24.539Z,100002.77
2018-06-28T09:37:00.125Z,99993.75
2018-06-28T09:38:36.819Z,99990.30
2018-06-28T09:40:12.850Z,99995.87
2018-06-28T09:43:33.745Z,99978.45
2018-06-28T09:45:10.775Z,99976.05
2018-06-28T09:46:46.648Z,99986.18
2018-06-28T09:48:23.950Z,99980.45
2018-06-28T09:49:59.606Z,99967.25
2018-06-28T09:51:35.639Z,99976.78
2018-06-28T09:53:11.316Z,99978.97
2018-06-28T09:54:47.416Z,99965.77
2018-06-28T09:56:27.873Z,99967.23
2018-06-28T09:58:05.095Z,99974.30
2018-06-28T09:59:54.369Z,99966.52
2018-06-28T10:01:30.829Z,99960.63
2018-06-28T10:03:06.488Z,99966.55
2018-06-28T10:04:42.071Z,99962.61
2018-06-28T10:06:17.892Z,99960.04
2018-06-28T10:07:53.582Z,99954.91
2018-06-28T10:09:29.887Z,99959.35
2018-06-28T10:11:05.471Z,99951.78
2018-06-28T10:12:41.088Z,99949.98
2018-06-28T10:14:16.782Z,99960.29
2018-06-28T10:15:52.392Z,99956.07
2018-06-28T10:17:27.992Z,99946.50
2018-06-28T10:19:04.663Z,99951.00
2018-06-28T10:20:40.274Z,99954.92
2018-06-28T10:22:16.403Z,99954.39
2018-06-28T10:23:52.016Z,99954.70
2018-06-28T10:25:27.627Z,99949.02
2018-06-28T10:27:03.267Z,99952.52
2018-06-28T10:28:39.099Z,99954.27
2018-06-28T10:30:14.944Z,99952.92
2018-06-28T10:31:50.536Z,99940.70
2018-06-28T10:33:26.210Z,99951.82
2018-06-28T10:35:01.797Z,99935.45
2018-06-28T10:36:37.457Z,99938.56
2018-06-28T10:38:13.095Z,99940.49
2018-06-28T10:39:48.789Z,99942.47
2018-06-28T10:41:24.388Z,99943.33
2018-06-28T10:42:59.994Z,99934.61
2018-06-28T10:44:35.555Z,99932.05
2018-06-28T10:46:11.192Z,99942.28
2018-06-28T10:47:46.762Z,99930.12
2018-06-28T10:49:24.323Z,99926.44
2018-06-28T10:51:00.193Z,99926.45
2018-06-28T10:52:35.931Z,99918.17
2018-06-28T10:54:11.508Z,99921.36
2018-06-28T10:55:47.062Z,99911.17
2018-06-28T10:57:22.773Z,99918.41
2018-06-28T10:58:58.334Z,99922.28
2018-06-28T11:00:33.985Z,99922.16
2018-06-28T11:02:09.780Z,99903.70
2018-06-28T11:03:45.392Z,99914.00
2018-06-28T11:05:20.986Z,99906.80
2018-06-28T11:06:56.584Z,99912.75
2018-06-28T11:08:33.025Z,99898.72
2018-06-28T11:10:08.657Z,99908.06
2018-06-28T11:11:44.272Z,99905.06
2018-06-28T11:13:19.843Z,99894.03
2018-06-28T11:14:55.513Z,99901.13
2018-06-28T11:16:31.113Z,99887.96
2018-06-28T11:18:06.723Z,99898.08
2018-06-28T11:19:42.324Z,99896.48
2018-06-28T11:21:17.926Z,99894.99
2018-06-28T11:22:53.620Z,99883.41
2018-06-28T11:24:29.223Z,99893.39
2018-06-28T11:26:04.873Z,99882.38
2018-06-28T11:27:40.705Z,99881.19
2018-06-28T11:29:16.204Z,99898.08
2018-06-28T11:30:51.884Z,99874.00
2018-06-28T11:32:27.555Z,99872.96
2018-06-28T11:34:03.266Z,99868.20
2018-06-28T11:35:38.823Z,99861.89
2018-06-28T11:37:14.403Z,99865.20
2018-06-28T11:38:50.240Z,99859.52
2018-06-28T11:40:25.853Z,99858.24
2018-06-28T11:42:01.419Z,99845.83
2018-06-28T11:43:37.031Z,99851.70
2018-06-28T11:45:13.293Z,99859.73
2018-06-28T11:46:49.340Z,99837.47
2018-06-28T11:48:25.020Z,99846.00
2018-06-28T11:50:00.677Z,99861.36
2018-06-28T11:51:36.276Z,99866.03
2018-06-28T11:53:11.893Z,99877.55
2018-06-28T11:54:47.942Z,99860.84
2018-06-28T11:56:24.256Z,99844.08
2018-06-28T11:58:00.073Z,99840.83
2018-06-28T11:59:35.681Z,99839.45
2018-06-28T12:01:11.723Z,99841.91
2018-06-28T12:02:47.387Z,99837.30
2018-06-28T12:04:23.008Z,99831.68
2018-06-28T12:05:58.597Z,99862.78
2018-06-28T12:07:34.307Z,99826.88
2018-06-28T12:09:11.475Z,99840.97
2018-06-28T12:10:47.112Z,99850.36
2018-06-28T12:12:22.700Z,99838.08
2018-06-28T12:13:58.262Z,99849.16
2018-06-28T12:15:33.870Z,99823.19
2018-06-28T12:17:09.472Z,99823.91
2018-06-28T12:18:45.237Z,99834.36
2018-06-28T12:20:20.802Z,99829.92
2018-06-28T12:21:56.822Z,99827.02
2018-06-28T12:23:32.920Z,99833.96
2018-06-28T12:25:08.772Z,99831.77
2018-06-28T12:26:44.351Z,99819.11
2018-06-28T12:28:19.979Z,99823.63
2018-06-28T12:29:55.593Z,99853.18
2018-06-28T12:31:31.154Z,99828.50
2018-06-28T12:33:06.750Z,99827.17
2018-06-28T12:34:42.607Z,99827.99
2018-06-28T12:36:18.255Z,99838.92
2018-06-28T12:37:54.124Z,99830.29
2018-06-28T12:39:29.672Z,99823.66
2018-06-28T12:41:05.234Z,99825.58
2018-06-28T12:42:40.811Z,99825.41
2018-06-28T12:44:16.451Z,99815.30
2018-06-28T12:45:52.071Z,99816.64
2018-06-28T12:47:56.475Z,99809.83
2018-06-28T12:49:32.206Z,99797.16
2018-06-28T12:51:07.781Z,99827.86
2018-06-28T12:52:48.617Z,99809.53
2018-06-28T12:54:24.200Z,99808.83
2018-06-28T12:56:18.780Z,99809.20
2018-06-28T12:57:55.594Z,99810.95
2018-06-28T12:59:31.170Z,99825.67
2018-06-28T13:01:06.795Z,99817.11
2018-06-28T13:02:42.633Z,99817.77
2018-06-28T13:04:18.325Z,99806.47
2018-06-28T13:05:53.912Z,99810.08
2018-06-28T13:07:29.599Z,99811.77
2018-06-28T13:09:11.648Z,99818.41
2018-06-28T13:10:47.262Z,99816.95
2018-06-28T13:12:22.958Z,99824.53
2018-06-28T13:13:59.108Z,99809.26
2018-06-28T13:15:35.172Z,99813.02
2018-06-28T13:17:10.891Z,99806.05
2018-06-28T13:18:47.216Z,99805.53
2018-06-28T13:20:22.803Z,99807.38
2018-06-28T13:21:58.415Z,99807.72
2018-06-28T13:23:33.985Z,99803.97
2018-06-28T13:25:10.867Z,99812.95
2018-06-28T13:26:46.459Z,99798.02
2018-06-28T13:28:22.088Z,99815.86
2018-06-28T13:29:57.675Z,99815.14
2018-06-28T13:31:33.306Z,99813.69
2018-06-28T13:33:08.857Z,99814.42
2018-06-28T13:34:44.586Z,99806.77
2018-06-28T13:36:20.275Z,99803.53
2018-06-28T13:37:56.057Z,99805.09
2018-06-28T13:39:31.697Z,99809.36
2018-06-28T13:41:07.854Z,99807.31
2018-06-28T13:42:43.735Z,99798.30
2018-06-28T13:44:19.383Z,99801.06
2018-06-28T13:45:55.155Z,99798.03
2018-06-28T13:47:31.050Z,99796.47
2018-06-28T13:49:06.811Z,99800.17
2018-06-28T13:50:42.426Z,99791.19
2018-06-28T13:52:18.043Z,99787.80
2018-06-28T13:53:53.692Z,99793.25
2018-06-28T13:55:29.276Z,99794.73
2018-06-28T13:57:04.938Z,99788.48
2018-06-28T13:58:40.570Z,99794.20
2018-06-28T14:00:16.162Z,99793.27
2018-06-28T14:01:52.483Z,99783.98
2018-06-28T14:03:28.167Z,99788.97
2018-06-28T14:05:03.704Z,99781.61
2018-06-28T14:06:39.283Z,99783.20
2018-06-28T14:08:14.917Z,99788.59
2018-06-28T14:09:50.735Z,99791.17
2018-06-28T14:11:26.380Z,99789.41
2018-06-28T14:13:01.979Z,99790.30
2018-06-28T14:14:37.612Z,99797.03
2018-06-28T14:16:13.208Z,99788.59
2018-06-28T14:17:48.810Z,99793.53
2018-06-28T14:19:24.377Z,99793.03
2018-06-28T14:21:00.118Z,99793.55
2018-06-28T14:22:35.962Z,99793.26
2018-06-28T14:24:11.536Z,99800.95
2018-06-28T14:25:47.216Z,99819.58
2018-06-28T14:27:22.787Z,99814.70
2018-06-28T14:28:58.405Z,99817.02
2018-06-28T14:30:35.038Z,99820.72
2018-06-28T14:32:11.892Z,99820.80
2018-06-28T14:33:49.853Z,99830.28
2018-06-28T14:35:25.454Z,99832.52
2018-06-28T14:37:05.652Z,99836.97
2018-06-28T14:38:48.815Z,99835.16
2018-06-28T14:40:25.379Z,99840.36
2018-06-28T14:42:01.797Z,99841.87
2018-06-28T14:43:37.563Z,99841.30
2018-06-28T14:45:16.219Z,99843.01
2018-06-28T14:46:51.867Z,99846.33
2018-06-28T14:48:27.583Z,99842.86
2018-06-28T14:50:03.524Z,99850.41
2018-06-28T14:51:39.158Z,99846.47
2018-06-28T14:53:14.798Z,99852.73
2018-06-28T14:54:50.648Z,99845.16
2018-06-28T14:56:27.051Z,99853.02
2018-06-28T14:58:03.446Z,99854.00
2018-06-28T14:59:39.028Z,99853.20
2018-06-28T15:01:16.868Z,99844.70
2018-06-28T15:02:52.779Z,99839.56
2018-06-28T15:04:28.386Z,99835.41
2018-06-28T15:06:03.980Z,99832.66
2018-06-28T15:07:39.544Z,99834.56
2018-06-28T15:09:15.854Z,99837.11
2018-06-28T15:10:51.492Z,99834.34
2018-06-28T15:12:27.413Z,99831.48
2018-06-28T15:14:03.867Z,99831.69
2018-06-28T15:15:39.460Z,99829.31
2018-06-28T15:17:15.102Z,99823.16
2018-06-28T15:18:50.847Z,99818.73
2018-06-28T15:20:26.388Z,99818.57
2018-06-28T15:22:01.980Z,99812.88
2018-06-28T15:23:38.733Z,99813.30
2018-06-28T15:25:14.360Z,99799.55
2018-06-28T15:26:49.999Z,99810.25
2018-06-28T15:28:25.918Z,99809.33
2018-06-28T15:30:01.703Z,99807.56
2018-06-28T15:31:37.429Z,99800.80
2018-06-28T15:33:13.112Z,99803.05
2018-06-28T15:34:48.709Z,99802.81
2018-06-28T15:36:24.408Z,99805.36
2018-06-28T15:38:00.081Z,99801.95
2018-06-28T15:39:35.948Z,99801.74
2018-06-28T15:41:11.867Z,99801.34
2018-06-28T15:42:47.876Z,99798.38
2018-06-28T15:44:23.650Z,99799.02
2018-06-28T15:46:04.661Z,99806.36
2018-06-28T15:47:41.432Z,99798.72
2018-06-28T15:49:18.342Z,99809.73
2018-06-28T15:50:54.149Z,99804.49
2018-06-28T15:52:30.474Z,99801.98
2018-06-28T15:54:06.903Z,99803.22
2018-06-28T15:55:42.553Z,99809.89
2018-06-28T15:57:18.371Z,99808.22
2018-06-28T15:58:58.481Z,99808.98
2018-06-28T16:00:34.126Z,99804.83
2018-06-28T16:02:09.972Z,99804.02
2018-06-28T16:03:46.047Z,99803.68
2018-06-28T16:05:21.985Z,99802.41
2018-06-28T16:06:57.991Z,99796.33
2018-06-28T16:08:33.669Z,99793.75
2018-06-28T16:10:09.299Z,99798.66
2018-06-28T16:11:50.566Z,99795.80
2018-06-28T16:13:26.317Z,99791.95
2018-06-28T16:15:02.624Z,99791.38
2018-06-28T16:16:38.579Z,99792.05
2018-06-28T16:18:14.164Z,99801.01
2018-06-28T16:19:49.852Z,99796.09
2018-06-28T16:21:25.415Z,99788.95
2018-06-28T16:23:01.122Z,99785.40
2018-06-28T16:24:36.911Z,99791.56
2018-06-28T16:26:13.623Z,99781.38
2018-06-28T16:27:49.234Z,99776.92
2018-06-28T16:29:24.920Z,99778.09
2018-06-28T16:31:00.475Z,99777.98
2018-06-28T16:32:36.080Z,99774.00
2018-06-28T16:34:12.109Z,99776.75
2018-06-28T16:35:48.447Z,99775.30
2018-06-28T16:37:24.446Z,99783.15
2018-06-28T16:39:00.031Z,99779.20
2018-06-28T16:40:35.629Z,99783.83
2018-06-28T16:42:11.184Z,99779.44
2018-06-28T16:43:46.768Z,99777.95
2018-06-28T16:45:22.375Z,99773.06
2018-06-28T16:46:57.950Z,99777.14
2018-06-28T16:48:33.536Z,99775.64
2018-06-28T16:50:09.200Z,99781.74
2018-06-28T16:51:44.902Z,99786.94
2018-06-28T16:53:20.494Z,99784.73
2018-06-28T16:54:56.115Z,99781.18
2018-06-28T16:56:31.718Z,99781.69
2018-06-28T16:58:08.154Z,99783.99
2018-06-28T16:59:44.154Z,99788.66
2018-06-28T17:01:19.678Z,99792.02
2018-06-28T17:02:55.271Z,99788.75
2018-06-28T17:04:30.868Z,99790.40
2018-06-28T17:06:06.474Z,99785.56
2018-06-28T17:07:42.126Z,99789.05
2018-06-28T17:09:17.877Z,99779.92
2018-06-28T17:10:53.734Z,99781.02
2018-06-28T17:12:29.659Z,99778.67
2018-06-28T17:14:05.609Z,99779.45
2018-06-28T17:15:43.373Z,99770.20
2018-06-28T17:17:19.903Z,99768.22
2018-06-28T17:18:55.523Z,99763.00
2018-06-28T17:20:32.111Z,99765.17
2018-06-28T17:22:08.912Z,99760.23
2018-06-28T17:23:45.285Z,99759.75
2018-06-28T17:25:20.944Z,99757.22
2018-06-28T17:26:56.745Z,99754.37
2018-06-28T17:28:32.407Z,99754.52
2018-06-28T17:30:08.042Z,99751.55
2018-06-28T17:31:43.929Z,99748.30
2018-06-28T17:33:19.532Z,99755.38
2018-06-28T17:34:55.264Z,99758.73
2018-06-28T17:36:30.948Z,99755.36
2018-06-28T17:38:06.480Z,99753.66
2018-06-28T17:39:42.579Z,99754.31
2018-06-28T17:41:18.176Z,99750.29
2018-06-28T17:42:54.068Z,99751.77
2018-06-28T17:44:29.680Z,99749.59
2018-06-28T17:46:05.284Z,99745.23
2018-06-28T17:47:40.847Z,99743.86
2018-06-28T17:49:17.635Z,99740.14
2018-06-28T17:50:53.289Z,99737.97
2018-06-28T17:52:29.232Z,99737.52
2018-06-28T17:54:05.089Z,99732.80
2018-06-28T17:55:40.671Z,99731.11
2018-06-28T17:57:16.946Z,99734.63
2018-06-28T17:58:52.537Z,99732.95
2018-06-28T18:00:28.109Z,99735.63
2018-06-28T18:02:03.679Z,99735.83
2018-06-28T18:03:40.234Z,99736.38
2018-06-28T18:05:17.674Z,99734.83
2018-06-28T18:06:55.355Z,99742.19
2018-06-28T18:08:31.505Z,99741.83
2018-06-28T18:10:10.628Z,99741.47
2018-06-28T18:11:48.224Z,99734.97
2018-06-28T18:13:25.577Z,99733.15
2018-06-28T18:15:03.509Z,99731.52
2018-06-28T18:16:41.599Z,99730.25
2018-06-28T18:18:17.395Z,99725.88
2018-06-28T18:19:54.535Z,99728.45
2018-06-28T18:21:30.991Z,99735.58
2018-06-28T18:23:07.069Z,99738.27
2018-06-28T18:24:44.186Z,99732.81
2018-06-28T18:26:20.191Z,99731.83
2018-06-28T18:27:57.031Z,99728.06
2018-06-28T18:29:33.674Z,99730.05
2018-06-28T18:31:09.373Z,99734.56
2018-06-28T18:32:45.332Z,99735.94